Middletown, Vermont
Current Conditions -  °F | °C
As of 5:54 AM on Friday 24 Oct 2014 (Local Time) from KVSF Reporting Station
Overcast Overcast  
Wind Chill: 41°   Ceiling: 1900
Heat Index: 44°   Visibility: 7mi
Dew Point: 41°   Wind: 6mph
Humidity: 89%   Direction: 300°WNW
Pressure: 29.77"   Gusts: NA
Location:  43.2811°N, 72.6352°W
Report Text: KVSF 240954Z AUTO 30005KT 7SM OVC019 07/05 A2977 RMK AO2 RAB0855E08B24E38 SLP084 P0000 T00670050
Loading
Personal Weather Stations






























Interactive Weather Map New forecast layout! Learn more

10-Day Weather Forecast

Advertisements
Track Severe Weather on mobile